createdAt,value
2023-01-07T00:01:32.094Z,9.53
2023-01-07T00:03:34.772Z,9.37
2023-01-07T00:05:37.040Z,8.90
2023-01-07T00:07:39.101Z,7.93
2023-01-07T00:09:41.070Z,8.30
2023-01-07T00:11:43.609Z,7.43
2023-01-07T00:13:46.671Z,9.80
2023-01-07T00:15:48.787Z,7.23
2023-01-07T00:17:50.822Z,8.93
2023-01-07T00:19:52.786Z,9.47
2023-01-07T00:21:55.011Z,7.93
2023-01-07T00:23:59.511Z,8.67
2023-01-07T00:26:03.894Z,9.03
2023-01-07T00:28:05.856Z,9.00
2023-01-07T00:30:08.741Z,8.40
2023-01-07T00:32:10.795Z,8.00
2023-01-07T00:34:13.150Z,7.47
2023-01-07T00:36:15.403Z,8.37
2023-01-07T00:38:19.322Z,8.50
2023-01-07T00:40:22.167Z,9.67
2023-01-07T00:42:43.202Z,7.57
2023-01-07T00:44:45.496Z,9.80
2023-01-07T00:46:47.485Z,7.90
2023-01-07T00:48:49.539Z,7.90
2023-01-07T00:50:52.037Z,7.23
2023-01-07T00:52:54.663Z,7.80
2023-01-07T00:54:59.100Z,8.77
2023-01-07T00:57:01.154Z,8.83
2023-01-07T00:59:03.138Z,8.03
2023-01-07T01:01:05.521Z,10.20
2023-01-07T01:03:08.618Z,9.00
2023-01-07T01:05:11.128Z,11.20
2023-01-07T01:07:13.190Z,9.07
2023-01-07T01:09:15.302Z,11.67
2023-01-07T01:11:18.041Z,8.50
2023-01-07T01:13:21.138Z,10.83
2023-01-07T01:15:23.136Z,14.70
2023-01-07T01:17:25.155Z,8.50
2023-01-07T01:19:27.373Z,12.50
2023-01-07T01:21:29.463Z,11.70
2023-01-07T01:23:31.833Z,9.00
2023-01-07T01:25:33.993Z,9.53
2023-01-07T01:27:36.237Z,8.13
2023-01-07T01:29:38.220Z,10.60
2023-01-07T01:31:40.515Z,9.80
2023-01-07T01:33:43.036Z,11.60
2023-01-07T01:35:45.044Z,10.23
2023-01-07T01:37:47.092Z,8.40
2023-01-07T01:39:49.211Z,11.80
2023-01-07T01:41:51.517Z,10.57
2023-01-07T01:43:53.674Z,8.67
2023-01-07T01:45:56.392Z,12.57
2023-01-07T01:48:09.760Z,10.80
2023-01-07T01:50:33.155Z,9.93
2023-01-07T01:52:40.291Z,8.60
2023-01-07T01:54:45.046Z,8.40
2023-01-07T01:56:50.094Z,9.83
2023-01-07T01:58:55.759Z,10.63
2023-01-07T02:00:58.179Z,11.13
2023-01-07T02:03:01.642Z,9.20
2023-01-07T02:05:04.837Z,8.80
2023-01-07T02:07:10.785Z,9.10
2023-01-07T02:09:16.977Z,10.40
2023-01-07T02:12:04.247Z,9.80
2023-01-07T02:14:12.048Z,10.27
2023-01-07T02:16:40.518Z,10.33
2023-01-07T02:18:48.030Z,13.00
2023-01-07T02:21:28.407Z,10.50
2023-01-07T02:23:48.911Z,10.03
2023-01-07T02:26:12.622Z,8.60
2023-01-07T02:28:44.041Z,9.23
2023-01-07T02:30:57.852Z,10.30
2023-01-07T02:33:09.146Z,9.20
2023-01-07T02:35:21.031Z,8.13
2023-01-07T02:37:40.327Z,8.87
2023-01-07T02:39:59.529Z,8.47
2023-01-07T02:42:16.367Z,9.23
2023-01-07T02:44:31.183Z,9.00
2023-01-07T02:46:57.139Z,8.73
2023-01-07T02:49:00.836Z,10.03
2023-01-07T02:51:03.169Z,7.70
2023-01-07T02:53:08.595Z,7.90
2023-01-07T02:55:14.791Z,8.07
2023-01-07T02:57:34.356Z,6.70
2023-01-07T02:59:46.156Z,6.33
2023-01-07T03:02:32.881Z,6.10
2023-01-07T03:05:20.982Z,6.20
2023-01-07T03:07:48.763Z,7.20
2023-01-07T03:10:03.169Z,5.30
2023-01-07T03:12:14.079Z,5.60
2023-01-07T03:14:23.016Z,6.10
2023-01-07T03:16:31.378Z,6.33
2023-01-07T03:18:41.737Z,5.80
2023-01-07T03:20:44.796Z,9.83
2023-01-07T03:22:47.342Z,5.17
2023-01-07T03:24:51.931Z,5.23
2023-01-07T03:26:56.383Z,5.13
2023-01-07T03:29:00.868Z,4.60
2023-01-07T03:31:04.107Z,5.40
2023-01-07T03:33:16.435Z,6.33
2023-01-07T03:35:21.056Z,5.87
2023-01-07T03:37:24.982Z,4.90
2023-01-07T03:39:28.912Z,4.73
2023-01-07T03:41:50.759Z,5.63
2023-01-07T03:43:53.241Z,5.80
2023-01-07T03:45:56.373Z,5.43
2023-01-07T03:47:58.734Z,7.53
2023-01-07T03:50:07.764Z,4.90
2023-01-07T03:52:14.647Z,5.20
2023-01-07T03:54:16.762Z,5.17
2023-01-07T03:56:18.736Z,4.83
2023-01-07T03:58:21.041Z,5.60
2023-01-07T04:00:23.288Z,4.97
2023-01-07T04:02:31.315Z,6.80
2023-01-07T04:04:33.416Z,5.60
2023-01-07T04:06:36.421Z,5.30
2023-01-07T04:08:38.442Z,5.30
2023-01-07T04:10:40.939Z,5.83
2023-01-07T04:12:43.402Z,8.30
2023-01-07T04:14:45.630Z,7.70
2023-01-07T04:16:47.806Z,5.40
2023-01-07T04:18:49.794Z,5.10
2023-01-07T04:20:51.803Z,4.80
2023-01-07T04:22:53.808Z,5.53
2023-01-07T04:24:55.879Z,4.87
2023-01-07T04:26:57.900Z,4.37
2023-01-07T04:28:59.916Z,5.80
2023-01-07T04:31:03.043Z,5.73
2023-01-07T04:33:06.527Z,4.30
2023-01-07T04:35:09.361Z,5.50
2023-01-07T04:37:11.475Z,6.67
2023-01-07T04:39:13.690Z,5.97
2023-01-07T04:41:15.956Z,5.47
2023-01-07T04:43:18.102Z,5.57
2023-01-07T04:45:20.492Z,5.20
2023-01-07T04:47:22.607Z,4.53
2023-01-07T04:49:24.582Z,4.57
2023-01-07T04:51:27.866Z,6.70
2023-01-07T04:53:30.316Z,6.10
2023-01-07T04:55:32.420Z,4.93
2023-01-07T04:57:34.545Z,5.33
2023-01-07T04:59:36.499Z,5.60
2023-01-07T05:01:38.886Z,5.93
2023-01-07T05:03:42.624Z,5.40
2023-01-07T05:05:45.578Z,8.83
2023-01-07T05:07:48.056Z,5.43
2023-01-07T05:09:51.525Z,4.83
2023-01-07T05:11:54.372Z,5.93
2023-01-07T05:14:00.114Z,5.53
2023-01-07T05:16:05.472Z,6.47
2023-01-07T05:18:08.868Z,5.40
2023-01-07T05:20:12.027Z,7.53
2023-01-07T05:22:14.754Z,10.33
2023-01-07T05:24:17.426Z,5.70
2023-01-07T05:26:20.649Z,4.30
2023-01-07T05:28:23.612Z,4.83
2023-01-07T05:30:25.931Z,4.60
2023-01-07T05:32:27.956Z,4.77
2023-01-07T05:34:30.686Z,5.40
2023-01-07T05:36:33.190Z,5.60
2023-01-07T05:38:35.467Z,6.53
2023-01-07T05:40:37.533Z,6.10
2023-01-07T05:42:39.663Z,5.23
2023-01-07T05:44:42.593Z,8.53
2023-01-07T05:46:44.705Z,7.90
2023-01-07T05:48:46.697Z,5.23
2023-01-07T05:50:48.665Z,6.20
2023-01-07T05:52:51.447Z,5.50
2023-01-07T05:54:53.411Z,5.00
2023-01-07T05:56:55.365Z,4.83
2023-01-07T05:58:57.459Z,5.30
2023-01-07T06:00:59.516Z,5.10
2023-01-07T06:03:01.535Z,5.10
2023-01-07T06:05:04.345Z,5.03
2023-01-07T06:07:06.426Z,4.50
2023-01-07T06:09:08.477Z,14.07
2023-01-07T06:11:10.440Z,4.83
2023-01-07T06:13:12.453Z,4.50
2023-01-07T06:15:14.483Z,4.00
2023-01-07T06:17:16.485Z,5.53
2023-01-07T06:19:18.458Z,4.47
2023-01-07T06:21:21.541Z,4.40
2023-01-07T06:23:23.866Z,5.23
2023-01-07T06:25:25.931Z,5.93
2023-01-07T06:27:28.036Z,8.20
2023-01-07T06:29:30.058Z,4.40
2023-01-07T06:31:32.101Z,4.57
2023-01-07T06:33:34.159Z,4.20
2023-01-07T06:35:36.142Z,4.50
2023-01-07T06:37:38.986Z,4.33
2023-01-07T06:39:41.188Z,5.97
2023-01-07T06:41:43.182Z,5.57
2023-01-07T06:43:45.169Z,4.43
2023-01-07T06:45:47.430Z,4.97
2023-01-07T06:47:49.476Z,5.30
2023-01-07T06:49:52.346Z,7.67
2023-01-07T06:51:54.323Z,5.43
2023-01-07T06:53:56.270Z,4.43
2023-01-07T06:55:58.283Z,4.50
2023-01-07T06:58:00.319Z,6.60
2023-01-07T07:00:02.536Z,5.37
2023-01-07T07:02:04.930Z,4.53
2023-01-07T07:04:07.012Z,6.30
2023-01-07T07:06:09.067Z,5.70
2023-01-07T07:08:11.371Z,9.67
2023-01-07T07:10:13.451Z,5.17
2023-01-07T07:12:15.471Z,5.80
2023-01-07T07:14:17.458Z,4.90
2023-01-07T07:16:22.462Z,4.87
2023-01-07T07:18:24.757Z,5.30
2023-01-07T07:20:26.705Z,4.23
2023-01-07T07:22:28.716Z,4.50
2023-01-07T07:24:30.698Z,4.00
2023-01-07T07:26:32.681Z,4.70
2023-01-07T07:28:34.667Z,3.80
2023-01-07T07:30:45.836Z,4.10
2023-01-07T07:32:49.890Z,5.57
2023-01-07T07:34:51.890Z,4.90
2023-01-07T07:36:53.875Z,5.20
2023-01-07T07:38:55.952Z,7.30
2023-01-07T07:40:58.034Z,5.13
2023-01-07T07:43:10.191Z,6.67
2023-01-07T07:45:16.206Z,5.90
2023-01-07T07:47:18.511Z,9.40
2023-01-07T07:49:20.512Z,5.10
2023-01-07T07:51:23.277Z,5.23
2023-01-07T07:53:25.302Z,5.63
2023-01-07T07:55:27.480Z,6.93
2023-01-07T07:57:29.514Z,4.50
2023-01-07T07:59:31.510Z,4.60
2023-01-07T08:01:35.310Z,6.97
2023-01-07T08:03:39.222Z,5.20
2023-01-07T08:05:44.773Z,6.50
2023-01-07T08:07:46.805Z,5.90
2023-01-07T08:09:48.805Z,4.43
2023-01-07T08:11:50.828Z,5.17
2023-01-07T08:13:53.037Z,6.30
2023-01-07T08:15:55.082Z,6.23
2023-01-07T08:18:02.652Z,4.67
2023-01-07T08:20:05.927Z,6.90
2023-01-07T08:22:07.872Z,5.20
2023-01-07T08:24:09.887Z,4.43
2023-01-07T08:26:11.982Z,6.33
2023-01-07T08:28:13.959Z,3.60
2023-01-07T08:30:17.025Z,4.67
2023-01-07T08:32:19.129Z,3.20
2023-01-07T08:34:21.237Z,4.93
2023-01-07T08:36:23.717Z,5.20
2023-01-07T08:38:27.446Z,4.50
2023-01-07T08:40:29.476Z,6.40
2023-01-07T08:42:31.575Z,5.27
2023-01-07T08:44:34.638Z,3.93
2023-01-07T08:46:36.812Z,4.00
2023-01-07T08:48:40.314Z,3.67
2023-01-07T08:50:42.713Z,4.87
2023-01-07T08:52:47.811Z,4.40
2023-01-07T08:54:51.797Z,4.27
2023-01-07T08:56:53.810Z,3.60
2023-01-07T08:58:55.843Z,3.37
2023-01-07T09:01:06.426Z,3.57
2023-01-07T09:03:08.800Z,3.70
2023-01-07T09:05:11.375Z,4.30
2023-01-07T09:07:13.493Z,4.90
2023-01-07T09:09:16.692Z,6.07
2023-01-07T09:11:18.691Z,3.00
2023-01-07T09:13:20.796Z,4.80
2023-01-07T09:15:22.866Z,3.43
2023-01-07T09:17:25.000Z,3.83
2023-01-07T09:19:26.981Z,3.97
2023-01-07T09:21:29.048Z,3.60
2023-01-07T09:23:31.155Z,7.07
2023-01-07T09:25:33.372Z,3.00
2023-01-07T09:27:35.535Z,3.00
2023-01-07T09:29:37.582Z,2.97
2023-01-07T09:31:39.695Z,2.70
2023-01-07T09:33:41.745Z,3.57
2023-01-07T09:35:43.772Z,2.30
2023-01-07T09:37:45.757Z,2.00
2023-01-07T09:39:47.729Z,2.23
2023-01-07T09:42:05.120Z,2.20
2023-01-07T09:44:19.366Z,3.13
2023-01-07T09:46:21.558Z,4.83
2023-01-07T09:48:37.194Z,4.90
2023-01-07T09:50:55.239Z,3.20
2023-01-07T09:53:00.971Z,2.20
2023-01-07T09:55:32.115Z,2.03
2023-01-07T09:57:34.127Z,3.00
2023-01-07T09:59:36.204Z,3.30
2023-01-07T10:01:52.452Z,5.40
2023-01-07T10:04:05.867Z,1.87
2023-01-07T10:06:44.320Z,2.20
2023-01-07T10:09:25.401Z,2.10
2023-01-07T10:12:18.832Z,1.90
2023-01-07T10:14:43.960Z,3.60
2023-01-07T10:16:55.385Z,2.60
2023-01-07T10:19:30.374Z,2.63
2023-01-07T10:21:47.827Z,2.20
2023-01-07T10:23:55.274Z,3.80
2023-01-07T10:25:58.639Z,5.27
2023-01-07T10:28:15.291Z,2.23
2023-01-07T10:30:23.453Z,4.90
2023-01-07T10:32:30.729Z,4.07
2023-01-07T10:34:36.970Z,2.77
2023-01-07T10:37:03.001Z,2.20
2023-01-07T10:39:11.205Z,2.10
2023-01-07T10:41:22.628Z,3.40
2023-01-07T10:44:05.868Z,3.23
2023-01-07T10:46:17.002Z,4.03
2023-01-07T10:48:21.666Z,2.10
2023-01-07T10:50:44.873Z,2.40
2023-01-07T10:53:15.027Z,1.73
2023-01-07T10:55:28.921Z,2.00
2023-01-07T10:57:32.019Z,1.90
2023-01-07T10:59:34.006Z,1.30
2023-01-07T11:01:40.224Z,1.57
2023-01-07T11:03:43.526Z,8.63
2023-01-07T11:05:45.772Z,1.53
2023-01-07T11:07:56.840Z,1.47
2023-01-07T11:10:02.307Z,2.53
2023-01-07T11:12:31.577Z,1.47
2023-01-07T11:14:36.240Z,1.20
2023-01-07T11:16:43.611Z,1.40
2023-01-07T11:19:00.976Z,1.27
2023-01-07T11:21:03.176Z,1.50
2023-01-07T11:23:37.171Z,1.30
2023-01-07T11:25:39.383Z,1.63
2023-01-07T11:27:45.436Z,1.40
2023-01-07T11:30:13.234Z,2.30
2023-01-07T11:32:26.484Z,1.87
2023-01-07T11:34:37.594Z,2.83
2023-01-07T11:36:43.597Z,2.00
2023-01-07T11:38:46.511Z,2.07
2023-01-07T11:40:59.932Z,1.50
2023-01-07T11:43:20.667Z,1.30
2023-01-07T11:45:22.705Z,1.60
2023-01-07T11:47:24.753Z,3.43
2023-01-07T11:49:29.854Z,1.40
2023-01-07T11:51:40.347Z,1.47
2023-01-07T11:53:59.504Z,1.33
2023-01-07T11:56:04.525Z,1.30
2023-01-07T11:58:29.602Z,2.20
2023-01-07T12:00:32.252Z,1.50
2023-01-07T12:02:34.291Z,1.40
2023-01-07T12:04:37.057Z,1.77
2023-01-07T12:06:40.927Z,1.30
2023-01-07T12:08:50.929Z,1.40
2023-01-07T12:10:57.477Z,1.50
2023-01-07T12:13:00.564Z,1.73
2023-01-07T12:15:06.889Z,1.93
2023-01-07T12:17:16.059Z,2.00
2023-01-07T12:19:42.827Z,2.40
2023-01-07T12:22:02.955Z,1.87
2023-01-07T12:24:25.266Z,2.87
2023-01-07T12:26:54.829Z,3.60
2023-01-07T12:29:18.728Z,1.70
2023-01-07T12:31:58.024Z,1.57
2023-01-07T12:34:18.544Z,1.50
2023-01-07T12:36:28.822Z,4.73
2023-01-07T12:38:44.158Z,1.77
2023-01-07T12:40:46.128Z,1.50
2023-01-07T12:42:55.247Z,4.10
2023-01-07T12:45:04.737Z,1.93
2023-01-07T12:47:31.056Z,2.20
2023-01-07T12:50:00.140Z,1.57
2023-01-07T12:52:23.306Z,1.77
2023-01-07T12:54:41.039Z,5.90
2023-01-07T12:57:00.567Z,2.00
2023-01-07T12:59:06.092Z,2.50
2023-01-07T13:01:17.195Z,1.57
2023-01-07T13:03:38.163Z,1.90
2023-01-07T13:05:49.673Z,2.13
2023-01-07T13:08:04.443Z,1.50
2023-01-07T13:10:12.193Z,2.70
2023-01-07T13:12:48.518Z,1.63
2023-01-07T13:14:53.180Z,1.43
2023-01-07T13:17:28.051Z,1.73
2023-01-07T13:19:30.614Z,1.70
2023-01-07T13:21:33.639Z,1.80
2023-01-07T13:24:03.561Z,1.20
2023-01-07T13:26:35.681Z,1.63
2023-01-07T13:28:50.520Z,1.17
2023-01-07T13:31:15.526Z,1.47
2023-01-07T13:33:27.064Z,1.57
2023-01-07T13:35:56.120Z,1.60
2023-01-07T13:38:06.683Z,1.60
2023-01-07T13:40:21.006Z,1.43
2023-01-07T13:42:36.350Z,1.70
2023-01-07T13:44:50.538Z,3.97
2023-01-07T13:46:52.870Z,3.23
2023-01-07T13:48:55.092Z,1.80
2023-01-07T13:51:05.699Z,2.40
2023-01-07T13:53:16.754Z,4.50
2023-01-07T13:55:34.204Z,1.73
2023-01-07T13:57:36.213Z,1.90
2023-01-07T13:59:48.599Z,2.47
2023-01-07T14:02:24.932Z,1.60
2023-01-07T14:04:35.473Z,1.67
2023-01-07T14:06:39.220Z,1.87
2023-01-07T14:08:41.520Z,1.63
2023-01-07T14:10:51.620Z,1.50
2023-01-07T14:13:21.415Z,4.80
2023-01-07T14:15:49.857Z,2.60
2023-01-07T14:17:54.539Z,2.20
2023-01-07T14:20:26.828Z,1.70
2023-01-07T14:22:48.588Z,1.93
2023-01-07T14:25:05.242Z,2.50
2023-01-07T14:27:38.247Z,1.80
2023-01-07T14:29:52.502Z,1.93
2023-01-07T14:32:36.664Z,1.43
2023-01-07T14:34:38.896Z,1.40
2023-01-07T14:37:08.500Z,1.43
2023-01-07T14:39:30.480Z,1.53
2023-01-07T14:41:32.472Z,1.50
2023-01-07T14:43:43.510Z,5.13
2023-01-07T14:45:45.473Z,1.63
2023-01-07T14:47:50.486Z,3.20
2023-01-07T14:50:14.600Z,1.63
2023-01-07T14:52:38.920Z,2.37
2023-01-07T14:55:10.355Z,1.60
2023-01-07T14:57:27.346Z,2.30
2023-01-07T14:59:46.582Z,1.70
2023-01-07T15:02:00.706Z,2.10
2023-01-07T15:04:36.018Z,1.50
2023-01-07T15:06:41.911Z,1.50
2023-01-07T15:09:08.505Z,1.50
2023-01-07T15:11:35.379Z,1.60
2023-01-07T15:14:01.078Z,1.70
2023-01-07T15:16:07.445Z,1.70
2023-01-07T15:18:10.787Z,1.70
2023-01-07T15:20:12.911Z,1.60
2023-01-07T15:22:42.844Z,1.90
2023-01-07T15:25:09.541Z,1.57
2023-01-07T15:27:17.512Z,1.80
2023-01-07T15:29:37.909Z,1.83
2023-01-07T15:31:49.212Z,2.00
2023-01-07T15:34:06.358Z,1.70
2023-01-07T15:36:11.385Z,2.03
2023-01-07T15:38:44.643Z,1.87
2023-01-07T15:40:47.123Z,3.33
2023-01-07T15:42:52.462Z,2.90
2023-01-07T15:44:56.557Z,2.50
2023-01-07T15:46:58.712Z,1.70
2023-01-07T15:49:16.389Z,1.20
2023-01-07T15:51:18.865Z,1.40
2023-01-07T15:53:23.599Z,1.60
2023-01-07T15:55:30.058Z,1.40
2023-01-07T15:57:34.403Z,1.70
2023-01-07T15:59:47.915Z,1.80
2023-01-07T16:01:50.850Z,2.03
2023-01-07T16:03:55.521Z,1.67
2023-01-07T16:05:59.302Z,2.00
2023-01-07T16:08:01.543Z,1.80
2023-01-07T16:10:03.883Z,2.20
2023-01-07T16:12:29.772Z,1.67
2023-01-07T16:14:36.835Z,1.70
2023-01-07T16:16:38.922Z,2.20
2023-01-07T16:18:41.279Z,2.73
2023-01-07T16:21:05.958Z,2.20
2023-01-07T16:23:10.674Z,3.20
2023-01-07T16:25:18.633Z,3.20
2023-01-07T16:27:27.032Z,2.47
2023-01-07T16:29:31.844Z,2.60
2023-01-07T16:31:34.905Z,2.40
2023-01-07T16:33:37.832Z,4.47
2023-01-07T16:35:39.944Z,7.50
2023-01-07T16:37:42.130Z,10.77
2023-01-07T16:39:51.482Z,10.37
2023-01-07T16:42:12.432Z,5.63
2023-01-07T16:44:40.113Z,4.70
2023-01-07T16:47:06.220Z,4.10
2023-01-07T16:49:29.973Z,5.60
2023-01-07T16:51:35.534Z,5.30
2023-01-07T16:53:37.738Z,6.80
2023-01-07T16:55:47.192Z,14.43
2023-01-07T16:57:49.204Z,18.70
2023-01-07T16:59:55.825Z,8.07
2023-01-07T17:01:59.607Z,5.87
2023-01-07T17:04:02.713Z,10.23
2023-01-07T17:06:06.873Z,12.37
2023-01-07T17:08:18.617Z,14.07
2023-01-07T17:10:26.486Z,19.83
2023-01-07T17:12:29.079Z,19.90
2023-01-07T17:14:34.289Z,20.33
2023-01-07T17:16:37.017Z,21.43
2023-01-07T17:18:39.050Z,21.23
2023-01-07T17:23:48.606Z,18.80
2023-01-07T17:26:08.901Z,17.50
2023-01-07T17:28:19.205Z,15.10
2023-01-07T17:30:22.390Z,14.23
2023-01-07T17:32:24.543Z,12.07
2023-01-07T17:34:28.556Z,10.40
2023-01-07T17:36:31.965Z,5.63
2023-01-07T17:38:34.054Z,8.53
2023-01-07T17:40:36.112Z,4.87
2023-01-07T17:42:57.152Z,5.10
2023-01-07T17:44:59.315Z,4.40
2023-01-07T17:47:02.653Z,5.27
2023-01-07T17:49:04.791Z,5.00
2023-01-07T17:51:07.257Z,8.00
2023-01-07T17:53:31.571Z,4.57
2023-01-07T17:55:35.829Z,4.10
2023-01-07T17:57:37.886Z,4.47
2023-01-07T17:59:47.161Z,4.80
2023-01-07T18:01:51.389Z,4.70
2023-01-07T18:03:54.501Z,5.07
2023-01-07T18:05:57.138Z,7.70
2023-01-07T18:07:59.312Z,6.20
2023-01-07T18:10:01.459Z,4.50
2023-01-07T18:12:22.329Z,4.90
2023-01-07T18:14:24.604Z,4.67
2023-01-07T18:16:29.459Z,4.20
2023-01-07T18:18:31.635Z,4.53
2023-01-07T18:20:33.728Z,4.67
2023-01-07T18:22:35.764Z,4.50
2023-01-07T18:24:37.891Z,4.83
2023-01-07T18:26:40.013Z,4.33
2023-01-07T18:28:42.282Z,5.70
2023-01-07T18:30:44.392Z,7.10
2023-01-07T18:32:46.723Z,4.70
2023-01-07T18:34:48.988Z,5.30
2023-01-07T18:36:51.008Z,5.50
2023-01-07T18:38:53.277Z,4.47
2023-01-07T18:40:55.932Z,5.77
2023-01-07T18:42:58.549Z,6.07
2023-01-07T18:45:01.111Z,6.30
2023-01-07T18:47:03.170Z,6.20
2023-01-07T18:49:05.310Z,5.77
2023-01-07T18:51:11.438Z,6.83
2023-01-07T18:53:13.872Z,5.30
2023-01-07T18:55:19.360Z,5.20
2023-01-07T18:57:21.513Z,6.20
2023-01-07T18:59:24.400Z,5.13
2023-01-07T19:01:26.499Z,5.40
2023-01-07T19:03:28.751Z,6.10
2023-01-07T19:05:30.986Z,5.10
2023-01-07T19:07:33.275Z,5.13
2023-01-07T19:09:35.457Z,6.30
2023-01-07T19:11:38.894Z,4.40
2023-01-07T19:13:41.401Z,4.33
2023-01-07T19:15:43.519Z,4.83
2023-01-07T19:17:45.608Z,5.23
2023-01-07T19:19:48.986Z,4.97
2023-01-07T19:21:53.324Z,5.17
2023-01-07T19:23:55.727Z,5.47
2023-01-07T19:25:59.605Z,5.17
2023-01-07T19:28:01.658Z,4.80
2023-01-07T19:30:04.458Z,5.07
2023-01-07T19:32:06.643Z,6.93
2023-01-07T19:34:08.991Z,5.93
2023-01-07T19:36:12.512Z,5.77
2023-01-07T19:38:14.726Z,6.00
2023-01-07T19:40:17.228Z,4.80
2023-01-07T19:42:19.366Z,15.73
2023-01-07T19:44:21.444Z,6.70
2023-01-07T19:46:24.996Z,7.03
2023-01-07T19:48:28.218Z,6.07
2023-01-07T19:50:30.355Z,5.40
2023-01-07T19:52:32.432Z,5.53
2023-01-07T19:54:35.124Z,5.20
2023-01-07T19:56:37.223Z,7.70
2023-01-07T19:58:39.798Z,6.33
2023-01-07T20:00:41.883Z,7.20
2023-01-07T20:02:44.080Z,5.77
2023-01-07T20:04:46.359Z,7.20
2023-01-07T20:06:50.445Z,4.87
2023-01-07T20:08:53.831Z,6.73
2023-01-07T20:10:58.167Z,8.20
2023-01-07T20:13:00.210Z,5.13
2023-01-07T20:15:02.221Z,5.27
2023-01-07T20:17:04.423Z,5.50
2023-01-07T20:19:06.484Z,5.30
2023-01-07T20:21:09.483Z,6.03
2023-01-07T20:23:11.588Z,5.60
2023-01-07T20:25:13.703Z,9.30
2023-01-07T20:27:15.817Z,5.07
2023-01-07T20:29:17.916Z,5.10
2023-01-07T20:31:21.840Z,5.70
2023-01-07T20:33:24.076Z,5.90
2023-01-07T20:35:26.230Z,10.57
2023-01-07T20:37:31.158Z,5.70
2023-01-07T20:39:33.508Z,4.90
2023-01-07T20:41:35.761Z,5.87
2023-01-07T20:43:37.933Z,6.23
2023-01-07T20:45:40.110Z,5.83
2023-01-07T20:47:42.264Z,8.80
2023-01-07T20:49:44.743Z,6.27
2023-01-07T20:51:46.807Z,6.47
2023-01-07T20:53:48.973Z,6.60
2023-01-07T20:55:58.180Z,5.93
2023-01-07T20:58:00.221Z,5.70
2023-01-07T21:00:02.308Z,6.23
2023-01-07T21:02:04.615Z,6.90
2023-01-07T21:04:06.796Z,6.30
2023-01-07T21:06:11.262Z,6.10
2023-01-07T21:08:13.560Z,5.27
2023-01-07T21:10:17.779Z,7.20
2023-01-07T21:12:19.814Z,6.73
2023-01-07T21:14:22.016Z,5.60
2023-01-07T21:16:25.613Z,5.97
2023-01-07T21:18:27.805Z,5.80
2023-01-07T21:20:29.898Z,5.30
2023-01-07T21:22:31.969Z,6.83
2023-01-07T21:24:34.168Z,6.50
2023-01-07T21:26:36.201Z,6.23
2023-01-07T21:28:38.440Z,6.43
2023-01-07T21:30:40.581Z,6.53
2023-01-07T21:32:43.595Z,6.23
2023-01-07T21:34:45.681Z,6.90
2023-01-07T21:36:47.719Z,6.73
2023-01-07T21:38:56.153Z,5.30
2023-01-07T21:40:58.198Z,5.50
2023-01-07T21:43:00.283Z,5.33
2023-01-07T21:45:02.377Z,6.63
2023-01-07T21:47:04.605Z,6.57
2023-01-07T21:49:08.238Z,5.90
2023-01-07T21:51:25.743Z,9.90
2023-01-07T21:53:29.875Z,5.90
2023-01-07T21:55:31.911Z,6.60
2023-01-07T21:57:36.213Z,6.63
2023-01-07T21:59:38.362Z,6.70
2023-01-07T22:01:40.571Z,5.73
2023-01-07T22:03:49.488Z,7.27
2023-01-07T22:06:02.939Z,6.37
2023-01-07T22:08:05.289Z,9.97
2023-01-07T22:10:09.322Z,7.40
2023-01-07T22:12:12.096Z,6.23
2023-01-07T22:14:17.944Z,6.30
2023-01-07T22:16:21.636Z,7.07
2023-01-07T22:18:24.009Z,7.47
2023-01-07T22:20:26.071Z,8.27
2023-01-07T22:22:28.251Z,6.60
2023-01-07T22:24:30.439Z,8.13
2023-01-07T22:26:32.587Z,7.20
2023-01-07T22:28:36.697Z,6.90
2023-01-07T22:30:40.813Z,7.93
2023-01-07T22:32:42.970Z,6.47
2023-01-07T22:34:45.079Z,7.60
2023-01-07T22:37:07.218Z,7.00
2023-01-07T22:39:31.596Z,9.03
2023-01-07T22:41:34.325Z,8.80
2023-01-07T22:43:36.871Z,9.50
2023-01-07T22:45:45.467Z,8.53
2023-01-07T22:47:50.170Z,7.43
2023-01-07T22:49:52.533Z,7.77
2023-01-07T22:51:55.081Z,8.77
2023-01-07T22:53:58.771Z,7.20
2023-01-07T22:56:01.648Z,7.83
2023-01-07T22:58:04.025Z,8.63
2023-01-07T23:00:10.373Z,8.90
2023-01-07T23:02:12.395Z,10.30
2023-01-07T23:04:14.612Z,10.33
2023-01-07T23:06:16.866Z,7.80
2023-01-07T23:08:19.207Z,8.13
2023-01-07T23:10:21.283Z,7.97
2023-01-07T23:12:23.333Z,8.67
2023-01-07T23:14:26.005Z,8.67
2023-01-07T23:16:28.154Z,8.20
2023-01-07T23:18:30.917Z,9.60
2023-01-07T23:20:34.604Z,7.90
2023-01-07T23:22:36.677Z,7.90
2023-01-07T23:24:38.857Z,9.30
2023-01-07T23:26:42.049Z,8.30
2023-01-07T23:28:44.173Z,7.97
2023-01-07T23:30:46.554Z,9.43
2023-01-07T23:32:48.602Z,8.83
2023-01-07T23:34:50.934Z,7.47
2023-01-07T23:36:53.089Z,9.07
2023-01-07T23:38:56.176Z,9.93
2023-01-07T23:41:06.988Z,8.57
2023-01-07T23:43:09.056Z,8.23
2023-01-07T23:45:11.582Z,7.67
2023-01-07T23:47:13.653Z,11.23
2023-01-07T23:49:15.811Z,8.87
2023-01-07T23:51:19.808Z,8.67
2023-01-07T23:53:22.036Z,7.80
2023-01-07T23:55:24.087Z,7.67
2023-01-07T23:57:26.262Z,7.47
2023-01-07T23:59:28.409Z,8.37
